createdAt,value
2019-04-05T03:47:11.024Z,9.40
2019-04-05T03:49:38.955Z,9.30
2019-04-05T03:52:06.861Z,9.20
2019-04-05T03:54:34.937Z,9.30
2019-04-05T03:57:02.837Z,9.20
2019-04-05T03:59:30.728Z,8.90
2019-04-05T04:01:58.694Z,9.20
2019-04-05T04:04:26.583Z,9.30
2019-04-05T04:06:54.782Z,9.30
2019-04-05T04:09:22.680Z,9.40
2019-04-05T04:11:50.576Z,9.30
2019-04-05T04:14:18.524Z,9.40
2019-04-05T04:16:46.490Z,9.40
2019-04-05T04:19:14.445Z,9.40
2019-04-05T04:21:47.151Z,9.00
2019-04-05T04:24:15.103Z,8.90
2019-04-05T04:26:43.073Z,9.20
2019-04-05T04:29:11.042Z,9.40
2019-04-05T04:31:38.950Z,9.40
2019-04-05T04:34:06.888Z,9.50
2019-04-05T04:36:34.853Z,9.50
2019-04-05T04:39:04.282Z,9.40
2019-04-05T04:41:32.329Z,9.30
2019-04-05T04:44:00.289Z,9.30
2019-04-05T04:46:28.192Z,9.40
2019-04-05T04:48:56.131Z,9.50
2019-04-05T04:51:24.115Z,9.50
2019-04-05T04:53:51.993Z,9.10
2019-04-05T04:56:20.046Z,8.40
2019-04-05T04:58:48.002Z,8.50
2019-04-05T05:01:15.893Z,8.50
2019-04-05T05:03:43.885Z,8.30
2019-04-05T05:06:11.950Z,8.00
2019-04-05T05:08:40.027Z,8.20
2019-04-05T05:11:14.567Z,8.30
2019-04-05T05:13:37.863Z,8.50
2019-04-05T05:16:05.843Z,8.90
2019-04-05T05:18:33.809Z,9.20
2019-04-05T05:21:01.779Z,9.10
2019-04-05T05:23:29.757Z,8.50
2019-04-05T05:25:57.713Z,8.10
2019-04-05T05:28:25.692Z,7.80
2019-04-05T05:30:53.665Z,8.10
2019-04-05T05:33:21.649Z,8.40
2019-04-05T05:35:49.536Z,8.40
2019-04-05T05:38:17.504Z,8.80
2019-04-05T05:40:45.439Z,8.70
2019-04-05T05:43:13.413Z,9.00
2019-04-05T05:45:41.376Z,9.00
2019-04-05T05:48:09.295Z,9.20
2019-04-05T05:50:37.248Z,8.90
2019-04-05T05:53:05.204Z,9.20
2019-04-05T05:55:33.086Z,9.40
2019-04-05T05:58:01.031Z,9.40
2019-04-05T06:00:31.088Z,9.50
2019-04-05T06:02:58.611Z,9.40
2019-04-05T06:05:26.493Z,9.50
2019-04-05T06:07:54.405Z,9.40
2019-04-05T06:10:22.290Z,9.00
2019-04-05T06:12:50.275Z,8.50
2019-04-05T06:15:18.253Z,8.10
2019-04-05T06:17:46.320Z,8.00
2019-04-05T06:20:14.363Z,8.40
2019-04-05T06:22:42.361Z,8.80
2019-04-05T06:25:10.481Z,9.10
2019-04-05T06:27:38.505Z,9.30
2019-04-05T06:30:06.455Z,9.50
2019-04-05T06:32:34.344Z,9.70
2019-04-05T06:35:02.231Z,9.70
2019-04-05T06:37:30.150Z,9.40
2019-04-05T06:39:58.033Z,9.20
2019-04-05T06:42:25.945Z,9.00
2019-04-05T06:44:53.843Z,8.70
2019-04-05T06:47:21.841Z,8.30
2019-04-05T06:49:49.728Z,8.70
2019-04-05T06:52:17.615Z,9.20
2019-04-05T06:54:45.509Z,8.70
2019-04-05T06:57:13.413Z,8.50
2019-04-05T06:59:41.302Z,9.00
2019-04-05T07:02:09.181Z,8.70
2019-04-05T07:04:37.099Z,8.80
2019-04-05T07:07:04.986Z,9.00
2019-04-05T07:09:34.261Z,9.10
2019-04-05T07:12:02.349Z,9.40
2019-04-05T07:14:30.248Z,9.40
2019-04-05T07:16:58.141Z,9.50
2019-04-05T07:19:26.064Z,9.60
2019-04-05T07:21:53.998Z,9.70
2019-04-05T07:24:22.047Z,9.70
2019-04-05T07:26:49.976Z,9.50
2019-04-05T07:29:17.885Z,9.40
2019-04-05T07:31:45.844Z,9.60
2019-04-05T07:34:13.740Z,9.10
2019-04-05T07:36:41.638Z,9.50
2019-04-05T07:39:12.838Z,9.90
2019-04-05T07:41:40.780Z,10.00
2019-04-05T07:44:08.679Z,9.60
2019-04-05T07:46:36.562Z,9.40
2019-04-05T07:49:04.481Z,9.80
2019-04-05T07:51:32.375Z,10.00
2019-04-05T07:54:00.300Z,10.10
2019-04-05T07:56:28.259Z,10.10
2019-04-05T07:58:56.160Z,9.80
2019-04-05T08:01:24.088Z,10.10
2019-04-05T08:03:52.087Z,10.30
2019-04-05T08:06:20.011Z,10.50
2019-04-05T08:09:07.916Z,10.60
2019-04-05T08:11:35.887Z,10.70
2019-04-05T08:14:03.869Z,10.60
2019-04-05T08:16:31.803Z,10.70
2019-04-05T08:18:59.725Z,10.50
2019-04-05T08:21:27.681Z,10.30
2019-04-05T08:23:55.623Z,10.50
2019-04-05T08:26:23.517Z,10.60
2019-04-05T08:28:51.503Z,10.80
2019-04-05T08:31:19.408Z,10.90
2019-04-05T08:33:47.313Z,10.80
2019-04-05T08:36:15.259Z,10.90
2019-04-05T08:38:43.141Z,10.80
2019-04-05T08:41:11.048Z,10.90
2019-04-05T08:43:38.933Z,10.90
2019-04-05T08:46:06.824Z,11.00
2019-04-05T08:48:34.725Z,11.10
2019-04-05T08:51:02.722Z,10.90
2019-04-05T08:53:30.613Z,10.80
2019-04-05T08:55:58.509Z,10.80
2019-04-05T08:58:33.395Z,11.00
2019-04-05T09:00:56.030Z,10.90
2019-04-05T09:03:23.930Z,11.00
2019-04-05T09:05:51.831Z,11.20
2019-04-05T09:08:21.446Z,11.10
2019-04-05T09:10:49.510Z,11.20
2019-04-05T09:13:17.394Z,10.90
2019-04-05T09:15:45.326Z,10.80
2019-04-05T09:18:13.218Z,10.90
2019-04-05T09:20:41.169Z,11.20
2019-04-05T09:23:09.064Z,11.30
2019-04-05T09:25:37.003Z,11.30
2019-04-05T09:28:04.965Z,11.20
2019-04-05T09:30:32.864Z,11.20
2019-04-05T09:33:00.782Z,11.20
2019-04-05T09:35:28.686Z,11.10
2019-04-05T09:37:57.448Z,11.30
2019-04-05T09:40:25.371Z,11.30
2019-04-05T09:42:53.273Z,11.10
2019-04-05T09:45:21.177Z,11.40
2019-04-05T09:47:49.075Z,11.40
2019-04-05T09:50:17.070Z,11.30
2019-04-05T09:52:44.957Z,11.30
2019-04-05T09:55:12.849Z,11.20
2019-04-05T09:57:40.764Z,11.40
2019-04-05T10:00:10.376Z,11.40
2019-04-05T10:02:38.361Z,11.30
2019-04-05T10:05:06.325Z,11.30
2019-04-05T10:07:34.209Z,11.50
2019-04-05T10:10:02.094Z,11.60
2019-04-05T10:12:29.986Z,11.60
2019-04-05T10:14:57.901Z,11.60
2019-04-05T10:17:25.810Z,11.80
2019-04-05T10:19:53.773Z,11.70
2019-04-05T10:22:21.717Z,11.70
2019-04-05T10:24:49.604Z,11.70
2019-04-05T10:27:17.512Z,11.50
2019-04-05T10:29:45.469Z,11.50
2019-04-05T10:32:13.384Z,11.70
2019-04-05T10:34:41.301Z,11.80
2019-04-05T10:37:09.228Z,11.90
2019-04-05T10:39:37.129Z,11.60
2019-04-05T10:42:06.726Z,11.70
2019-04-05T10:44:34.642Z,11.90
2019-04-05T10:47:02.557Z,12.00
2019-04-05T10:49:30.494Z,12.10
2019-04-05T10:51:58.399Z,12.20
2019-04-05T10:54:26.355Z,12.20
2019-04-05T10:56:54.264Z,12.00
2019-04-05T10:59:22.178Z,11.90
2019-04-05T11:01:50.075Z,11.80
2019-04-05T11:04:18.109Z,11.90
2019-04-05T11:06:46.025Z,12.00
2019-04-05T11:09:13.952Z,11.90
2019-04-05T11:11:41.858Z,11.90
2019-04-05T11:14:13.988Z,11.80
2019-04-05T11:16:41.852Z,11.70
2019-04-05T11:19:09.765Z,11.60
2019-04-05T11:21:37.709Z,11.50
2019-04-05T11:24:06.086Z,11.50
2019-04-05T11:26:33.997Z,11.30
2019-04-05T11:29:01.906Z,11.30
2019-04-05T11:31:29.813Z,11.40
2019-04-05T11:33:57.766Z,11.40
2019-04-05T11:36:25.729Z,11.60
2019-04-05T11:38:53.701Z,11.50
2019-04-05T11:41:21.857Z,11.40
2019-04-05T11:43:49.749Z,11.50
2019-04-05T11:46:18.294Z,11.60
2019-04-05T11:48:46.499Z,11.50
2019-04-05T11:51:14.389Z,11.60
2019-04-05T11:53:42.330Z,11.50
2019-04-05T11:56:14.950Z,11.60
2019-04-05T11:58:41.454Z,11.90
2019-04-05T12:01:13.729Z,11.80
2019-04-05T12:03:41.689Z,11.90
2019-04-05T12:06:09.588Z,12.00
2019-04-05T12:08:37.517Z,12.10
2019-04-05T12:11:05.413Z,12.00
2019-04-05T12:13:33.373Z,12.10
2019-04-05T12:16:01.356Z,12.10
2019-04-05T12:18:29.313Z,12.00
2019-04-05T12:21:00.370Z,12.00
2019-04-05T12:23:26.871Z,11.80
2019-04-05T12:25:54.909Z,11.90
2019-04-05T12:28:22.896Z,11.90
2019-04-05T12:30:51.153Z,11.90
2019-04-05T12:33:19.648Z,11.90
2019-04-05T12:35:51.671Z,11.90
2019-04-05T12:38:31.546Z,12.10
2019-04-05T12:41:00.492Z,12.20
2019-04-05T12:43:28.410Z,12.30
2019-04-05T12:45:56.404Z,12.30
2019-04-05T12:48:24.377Z,12.20
2019-04-05T12:51:01.022Z,12.10
2019-04-05T12:53:21.877Z,12.10
2019-04-05T12:55:51.650Z,12.10
2019-04-05T12:58:19.384Z,12.20
2019-04-05T13:00:47.309Z,12.50
2019-04-05T13:03:15.269Z,12.50
2019-04-05T13:05:43.189Z,12.50
2019-04-05T13:08:11.123Z,12.50
2019-04-05T13:10:39.084Z,12.50
2019-04-05T13:13:07.090Z,12.50
2019-04-05T13:15:34.983Z,12.70
2019-04-05T13:18:03.077Z,12.70
2019-04-05T13:20:31.013Z,12.80
2019-04-05T13:23:02.451Z,12.80
2019-04-05T13:25:28.573Z,13.00
2019-04-05T13:27:56.516Z,13.20
2019-04-05T13:30:24.442Z,13.30
2019-04-05T13:32:53.434Z,13.10
2019-04-05T13:35:22.071Z,13.00
2019-04-05T13:37:50.035Z,13.20
2019-04-05T13:40:17.932Z,13.20
2019-04-05T13:42:45.856Z,13.40
2019-04-05T13:45:13.743Z,13.40
2019-04-05T13:47:41.640Z,13.40
2019-04-05T13:50:11.324Z,13.50
2019-04-05T13:52:49.709Z,13.50
2019-04-05T13:55:17.694Z,13.30
2019-04-05T13:57:45.603Z,13.20
2019-04-05T14:00:17.513Z,13.10
2019-04-05T14:02:43.477Z,13.20
2019-04-05T14:05:11.377Z,13.20
2019-04-05T14:07:39.280Z,13.50
2019-04-05T14:10:10.529Z,13.50
2019-04-05T14:12:37.651Z,13.40
2019-04-05T14:15:06.526Z,13.50
2019-04-05T14:17:34.418Z,13.50
2019-04-05T14:20:02.318Z,13.70
2019-04-05T14:22:30.294Z,13.90
2019-04-05T14:24:58.562Z,13.70
2019-04-05T14:27:26.509Z,13.80
2019-04-05T14:29:54.485Z,13.60
2019-04-05T14:32:22.402Z,13.90
2019-04-05T14:34:54.045Z,14.00
2019-04-05T14:37:22.132Z,13.80
2019-04-05T14:39:49.556Z,13.40
2019-04-05T14:42:17.677Z,13.30
2019-04-05T14:44:45.633Z,13.20
2019-04-05T14:47:13.561Z,13.40
2019-04-05T14:49:41.511Z,13.50
2019-04-05T14:52:09.405Z,13.50
2019-04-05T14:54:37.336Z,13.30
2019-04-05T14:57:05.950Z,13.20
2019-04-05T14:59:34.108Z,13.10
2019-04-05T15:02:02.010Z,13.10
2019-04-05T15:04:29.942Z,13.20
2019-04-05T15:06:57.838Z,13.20
2019-04-05T15:09:25.874Z,13.20
2019-04-05T15:11:53.761Z,13.20
2019-04-05T15:14:21.766Z,13.10
2019-04-05T15:16:49.719Z,13.20
2019-04-05T15:19:17.647Z,13.10
2019-04-05T15:21:45.555Z,13.20
2019-04-05T15:24:15.993Z,13.40
2019-04-05T15:26:43.115Z,13.40
2019-04-05T15:29:11.066Z,13.50
2019-04-05T15:31:38.969Z,13.50
2019-04-05T15:34:06.934Z,13.50
2019-04-05T15:36:34.910Z,13.70
2019-04-05T15:39:02.915Z,13.60
2019-04-05T15:41:30.820Z,13.80
2019-04-05T15:43:58.806Z,13.80
2019-04-05T15:46:27.056Z,14.00
2019-04-05T15:48:54.961Z,14.10
2019-04-05T15:51:24.902Z,14.10
2019-04-05T15:53:52.521Z,14.10
2019-04-05T15:56:20.644Z,13.90
2019-04-05T15:58:48.641Z,13.70
2019-04-05T16:01:16.951Z,13.40
2019-04-05T16:03:44.898Z,13.70
2019-04-05T16:06:12.998Z,13.80
2019-04-05T16:08:41.136Z,13.70
2019-04-05T16:11:09.117Z,14.00
2019-04-05T16:13:37.097Z,14.00
2019-04-05T16:16:05.156Z,13.70
2019-04-05T16:18:33.129Z,13.80
2019-04-05T16:21:01.106Z,13.90
2019-04-05T16:23:29.278Z,14.00
2019-04-05T16:25:57.329Z,13.80
2019-04-05T16:28:25.250Z,14.00
2019-04-05T16:30:53.160Z,14.10
2019-04-05T16:33:21.166Z,14.00
2019-04-05T16:35:49.486Z,14.00
2019-04-05T16:38:17.808Z,13.90
2019-04-05T16:40:45.774Z,14.10
2019-04-05T16:43:13.731Z,14.20
2019-04-05T16:45:42.107Z,14.40
2019-04-05T16:48:10.201Z,14.20
2019-04-05T16:50:38.174Z,14.10
2019-04-05T16:53:06.331Z,14.30
2019-04-05T16:55:34.236Z,14.20
2019-04-05T16:58:02.182Z,13.90
2019-04-05T17:00:30.620Z,13.90
2019-04-05T17:02:58.661Z,13.90
2019-04-05T17:05:26.730Z,13.80
2019-04-05T17:07:54.685Z,13.60
2019-04-05T17:10:22.654Z,13.50
2019-04-05T17:12:50.596Z,13.40
2019-04-05T17:15:18.758Z,13.40
2019-04-05T17:17:46.778Z,13.40
2019-04-05T17:20:14.840Z,13.40
2019-04-05T17:22:42.854Z,13.50
2019-04-05T17:25:12.049Z,13.40
2019-04-05T17:27:40.135Z,13.40
2019-04-05T17:30:08.111Z,13.30
2019-04-05T17:32:36.085Z,13.30
2019-04-05T17:35:05.747Z,13.30
2019-04-05T17:37:34.046Z,13.20
2019-04-05T17:40:02.071Z,13.20
2019-04-05T17:42:30.097Z,13.20
2019-04-05T17:44:58.631Z,13.30
2019-04-05T17:47:26.566Z,13.30
2019-04-05T17:49:54.497Z,13.40
2019-04-05T17:52:22.480Z,13.40
2019-04-05T17:54:50.439Z,13.40
2019-04-05T17:57:18.491Z,13.40
2019-04-05T17:59:46.461Z,13.10
2019-04-05T18:02:14.469Z,13.20
2019-04-05T18:04:42.408Z,13.20
2019-04-05T18:07:10.974Z,13.30
2019-04-05T18:09:38.969Z,13.20
2019-04-05T18:12:08.152Z,13.20
2019-04-05T18:14:36.434Z,13.10
2019-04-05T18:17:04.771Z,13.10
2019-04-05T18:19:32.799Z,12.80
2019-04-05T18:22:00.785Z,12.70
2019-04-05T18:24:28.761Z,12.60
2019-04-05T18:26:56.687Z,12.60
2019-04-05T18:29:24.922Z,12.80
2019-04-05T18:31:52.941Z,12.90
2019-04-05T18:34:20.831Z,12.70
2019-04-05T18:36:49.418Z,12.40
2019-04-05T18:39:17.340Z,12.30
2019-04-05T18:41:45.278Z,12.60
2019-04-05T18:44:13.312Z,12.50
2019-04-05T18:46:41.304Z,12.20
2019-04-05T18:49:09.378Z,12.30
2019-04-05T18:51:37.416Z,12.60
2019-04-05T18:54:05.449Z,12.40
2019-04-05T18:56:33.351Z,12.10
2019-04-05T18:59:01.297Z,12.10
2019-04-05T19:01:29.260Z,11.90
2019-04-05T19:03:57.313Z,11.90
2019-04-05T19:06:25.298Z,11.80
2019-04-05T19:08:53.289Z,11.80
2019-04-05T19:11:21.289Z,11.50
2019-04-05T19:14:00.458Z,11.30
2019-04-05T19:16:18.872Z,11.20
2019-04-05T19:18:48.676Z,11.20
2019-04-05T19:21:16.709Z,11.00
2019-04-05T19:23:50.883Z,10.90
2019-04-05T19:26:14.380Z,10.80
2019-04-05T19:28:42.402Z,10.80
2019-04-05T19:48:37.976Z,10.00
2019-04-05T19:51:05.998Z,9.90
2019-04-05T19:53:34.001Z,9.80
2019-04-05T19:56:01.998Z,10.20
2019-04-05T19:58:29.949Z,10.00
2019-04-05T20:00:59.229Z,9.90
2019-04-05T20:03:27.261Z,9.70
2019-04-05T20:05:55.185Z,9.60
2019-04-05T20:08:23.143Z,9.50
2019-04-05T20:10:51.196Z,9.60
2019-04-05T20:13:19.202Z,9.80
2019-04-05T20:15:47.215Z,10.40
2019-04-05T20:18:15.237Z,10.60
2019-04-05T20:20:43.181Z,9.90
2019-04-05T20:23:11.191Z,9.30
2019-04-05T20:25:39.105Z,9.10
2019-04-05T20:28:07.077Z,9.00
2019-04-05T20:30:37.005Z,8.90
2019-04-05T20:33:05.210Z,8.80
2019-04-05T20:35:34.722Z,9.00
2019-04-05T20:38:03.195Z,9.10
2019-04-05T20:40:31.268Z,8.90
2019-04-05T20:43:00.008Z,8.90
2019-04-05T20:45:28.034Z,8.70
2019-04-05T20:47:56.075Z,8.80
2019-04-05T20:50:24.144Z,8.60
2019-04-05T20:52:52.161Z,8.50
2019-04-05T20:55:20.091Z,8.30
2019-04-05T20:57:48.002Z,8.40
2019-04-05T21:00:16.591Z,8.30
2019-04-05T21:02:44.597Z,8.30
2019-04-05T21:05:12.601Z,8.20
2019-04-05T21:07:41.159Z,8.10
2019-04-05T21:10:11.655Z,8.00
2019-04-05T21:12:40.043Z,7.90
2019-04-05T21:15:08.407Z,7.80
2019-04-05T21:17:36.373Z,7.70
2019-04-05T21:20:05.925Z,7.70
2019-04-05T21:22:34.734Z,7.70
2019-04-05T21:25:02.953Z,7.60
2019-04-05T21:27:33.524Z,7.50
2019-04-05T21:30:01.582Z,7.30
2019-04-05T21:32:29.504Z,7.20
2019-04-05T21:34:57.500Z,7.40
2019-04-05T21:37:25.436Z,7.20
2019-04-05T21:39:53.399Z,7.20
2019-04-05T21:42:21.409Z,7.20
2019-04-05T21:44:49.393Z,7.10
2019-04-05T21:47:17.340Z,7.10
2019-04-05T21:49:45.310Z,7.20
2019-04-05T21:52:13.268Z,7.00
2019-04-05T21:54:47.414Z,7.20
2019-04-05T21:57:10.877Z,7.20
2019-04-05T21:59:38.943Z,7.10
2019-04-05T22:02:11.849Z,7.20
2019-04-05T22:04:40.998Z,7.10
2019-04-05T22:07:10.156Z,7.00
2019-04-05T22:09:38.053Z,6.90
2019-04-05T22:12:06.150Z,6.90
2019-04-05T22:14:35.306Z,6.80
2019-04-05T22:17:03.353Z,6.60
2019-04-05T22:19:32.234Z,6.60
2019-04-05T22:22:00.127Z,6.50
2019-04-05T22:24:28.021Z,6.50
2019-04-05T22:26:55.920Z,6.40
2019-04-05T22:29:23.801Z,6.50
2019-04-05T22:31:51.752Z,6.50
2019-04-05T22:34:22.809Z,6.50
2019-04-05T22:36:50.770Z,6.40
2019-04-05T22:39:18.648Z,6.40
2019-04-05T22:41:46.585Z,6.50
2019-04-05T22:44:14.470Z,6.40
2019-04-05T22:46:43.348Z,6.40
2019-04-05T22:49:12.238Z,6.40
2019-04-05T22:51:40.170Z,6.30
2019-04-05T22:54:08.998Z,6.30
2019-04-05T22:56:37.025Z,6.40
2019-04-05T22:59:04.918Z,6.30
2019-04-05T23:01:34.752Z,6.20
2019-04-05T23:04:02.632Z,6.20
2019-04-05T23:06:30.591Z,6.20
2019-04-05T23:09:15.459Z,6.10
2019-04-05T23:11:43.428Z,6.20
2019-04-05T23:14:11.303Z,6.20
2019-04-05T23:16:45.195Z,6.30
2019-04-05T23:19:13.079Z,6.60
2019-04-05T23:21:44.661Z,6.50
2019-04-05T23:24:13.484Z,6.30
2019-04-05T23:26:42.306Z,6.20
2019-04-05T23:29:16.102Z,6.20
